sensor_id;sensor_type;location;lat;lon;timestamp;temperature;humidity
4795;DHT22;2411;47.060;15.064;2024-02-21T00:00:58;2.20;1.00
4795;DHT22;2411;47.060;15.064;2024-02-21T00:03:25;2.30;1.00
4795;DHT22;2411;47.060;15.064;2024-02-21T00:05:52;2.40;1.00
4795;DHT22;2411;47.060;15.064;2024-02-21T00:08:20;2.50;1.00
4795;DHT22;2411;47.060;15.064;2024-02-21T00:10:47;2.60;1.00
4795;DHT22;2411;47.060;15.064;2024-02-21T00:13:14;2.60;1.00
4795;DHT22;2411;47.060;15.064;2024-02-21T00:15:41;2.70;1.00
4795;DHT22;2411;47.060;15.064;2024-02-21T00:18:08;2.30;1.00
4795;DHT22;2411;47.060;15.064;2024-02-21T00:20:38;2.30;1.00
4795;DHT22;2411;47.060;15.064;2024-02-21T00:23:05;2.40;1.00
4795;DHT22;2411;47.060;15.064;2024-02-21T00:25:32;2.40;1.00
4795;DHT22;2411;47.060;15.064;2024-02-21T00:27:59;2.50;1.00
4795;DHT22;2411;47.060;15.064;2024-02-21T00:30:26;2.40;1.00
4795;DHT22;2411;47.060;15.064;2024-02-21T00:32:54;2.30;1.00
4795;DHT22;2411;47.060;15.064;2024-02-21T00:35:21;2.00;1.00
4795;DHT22;2411;47.060;15.064;2024-02-21T00:37:48;1.90;1.00
4795;DHT22;2411;47.060;15.064;2024-02-21T00:40:15;2.00;1.00
4795;DHT22;2411;47.060;15.064;2024-02-21T00:42:47;2.00;1.00
4795;DHT22;2411;47.060;15.064;2024-02-21T00:45:14;2.10;1.00
4795;DHT22;2411;47.060;15.064;2024-02-21T00:47:41;2.00;1.00
4795;DHT22;2411;47.060;15.064;2024-02-21T00:50:08;2.20;1.00
4795;DHT22;2411;47.060;15.064;2024-02-21T00:52:36;2.50;1.00
4795;DHT22;2411;47.060;15.064;2024-02-21T00:55:04;2.60;1.00
4795;DHT22;2411;47.060;15.064;2024-02-21T00:57:31;2.50;1.00
4795;DHT22;2411;47.060;15.064;2024-02-21T00:59:58;2.20;1.00
4795;DHT22;2411;47.060;15.064;2024-02-21T01:02:26;2.10;1.00
4795;DHT22;2411;47.060;15.064;2024-02-21T01:04:53;2.10;1.00
4795;DHT22;2411;47.060;15.064;2024-02-21T01:07:20;2.20;1.00
4795;DHT22;2411;47.060;15.064;2024-02-21T01:09:47;2.30;1.00
4795;DHT22;2411;47.060;15.064;2024-02-21T01:12:14;2.40;1.00
4795;DHT22;2411;47.060;15.064;2024-02-21T01:14:42;2.40;1.00
4795;DHT22;2411;47.060;15.064;2024-02-21T01:17:09;2.50;1.00
4795;DHT22;2411;47.060;15.064;2024-02-21T01:19:36;2.60;1.00
4795;DHT22;2411;47.060;15.064;2024-02-21T01:22:03;2.60;1.00
4795;DHT22;2411;47.060;15.064;2024-02-21T01:24:30;2.60;1.00
4795;DHT22;2411;47.060;15.064;2024-02-21T01:26:57;2.60;1.00
4795;DHT22;2411;47.060;15.064;2024-02-21T01:29:25;2.60;1.00
4795;DHT22;2411;47.060;15.064;2024-02-21T01:31:52;2.60;1.00
4795;DHT22;2411;47.060;15.064;2024-02-21T01:34:19;2.70;1.00
4795;DHT22;2411;47.060;15.064;2024-02-21T01:36:46;2.80;1.00
4795;DHT22;2411;47.060;15.064;2024-02-21T01:39:13;2.80;1.00
4795;DHT22;2411;47.060;15.064;2024-02-21T01:41:40;2.90;1.00
4795;DHT22;2411;47.060;15.064;2024-02-21T01:44:07;2.90;1.00
4795;DHT22;2411;47.060;15.064;2024-02-21T01:46:35;2.90;1.00
4795;DHT22;2411;47.060;15.064;2024-02-21T01:49:02;3.00;1.00
4795;DHT22;2411;47.060;15.064;2024-02-21T01:51:29;3.00;1.00
4795;DHT22;2411;47.060;15.064;2024-02-21T01:53:58;3.00;1.00
4795;DHT22;2411;47.060;15.064;2024-02-21T01:56:25;3.00;1.00
4795;DHT22;2411;47.060;15.064;2024-02-21T01:58:52;2.90;1.00
4795;DHT22;2411;47.060;15.064;2024-02-21T02:01:19;2.90;1.00
4795;DHT22;2411;47.060;15.064;2024-02-21T02:03:48;2.80;1.00
4795;DHT22;2411;47.060;15.064;2024-02-21T02:06:16;2.80;1.00
4795;DHT22;2411;47.060;15.064;2024-02-21T02:08:44;2.90;1.00
4795;DHT22;2411;47.060;15.064;2024-02-21T02:11:13;3.00;1.00
4795;DHT22;2411;47.060;15.064;2024-02-21T02:13:41;3.10;1.00
4795;DHT22;2411;47.060;15.064;2024-02-21T02:16:08;3.10;1.00
4795;DHT22;2411;47.060;15.064;2024-02-21T02:18:35;3.20;1.00
4795;DHT22;2411;47.060;15.064;2024-02-21T02:21:10;3.20;1.00
4795;DHT22;2411;47.060;15.064;2024-02-21T02:23:41;3.20;1.00
4795;DHT22;2411;47.060;15.064;2024-02-21T02:26:09;3.20;1.00
4795;DHT22;2411;47.060;15.064;2024-02-21T02:28:36;3.20;1.00
4795;DHT22;2411;47.060;15.064;2024-02-21T02:31:03;3.10;1.00
4795;DHT22;2411;47.060;15.064;2024-02-21T02:33:30;3.10;1.00
4795;DHT22;2411;47.060;15.064;2024-02-21T02:35:58;3.00;1.00
4795;DHT22;2411;47.060;15.064;2024-02-21T02:38:25;3.00;1.00
4795;DHT22;2411;47.060;15.064;2024-02-21T02:40:52;3.10;1.00
4795;DHT22;2411;47.060;15.064;2024-02-21T02:43:20;3.30;1.00
4795;DHT22;2411;47.060;15.064;2024-02-21T02:45:47;3.10;1.00
4795;DHT22;2411;47.060;15.064;2024-02-21T02:48:14;3.00;1.00
4795;DHT22;2411;47.060;15.064;2024-02-21T02:50:41;3.00;1.00
4795;DHT22;2411;47.060;15.064;2024-02-21T02:53:08;3.00;1.00
4795;DHT22;2411;47.060;15.064;2024-02-21T02:55:35;3.10;1.00
4795;DHT22;2411;47.060;15.064;2024-02-21T02:58:03;3.10;1.00
4795;DHT22;2411;47.060;15.064;2024-02-21T03:00:30;3.20;1.00
4795;DHT22;2411;47.060;15.064;2024-02-21T03:02:57;3.20;1.00
4795;DHT22;2411;47.060;15.064;2024-02-21T03:05:24;3.20;1.00
4795;DHT22;2411;47.060;15.064;2024-02-21T03:07:52;3.20;1.00
4795;DHT22;2411;47.060;15.064;2024-02-21T03:10:19;3.30;1.00
4795;DHT22;2411;47.060;15.064;2024-02-21T03:12:46;3.40;1.00
4795;DHT22;2411;47.060;15.064;2024-02-21T03:15:14;3.40;1.00
4795;DHT22;2411;47.060;15.064;2024-02-21T03:17:41;3.30;1.00
4795;DHT22;2411;47.060;15.064;2024-02-21T03:20:09;3.30;1.00
4795;DHT22;2411;47.060;15.064;2024-02-21T03:22:39;3.30;1.00
4795;DHT22;2411;47.060;15.064;2024-02-21T03:25:09;3.10;1.00
4795;DHT22;2411;47.060;15.064;2024-02-21T03:27:38;3.20;1.00
4795;DHT22;2411;47.060;15.064;2024-02-21T03:30:05;3.10;1.00
4795;DHT22;2411;47.060;15.064;2024-02-21T03:32:32;3.10;1.00
4795;DHT22;2411;47.060;15.064;2024-02-21T03:34:59;3.10;1.00
4795;DHT22;2411;47.060;15.064;2024-02-21T03:37:27;3.00;1.00
4795;DHT22;2411;47.060;15.064;2024-02-21T03:39:54;3.10;1.00
4795;DHT22;2411;47.060;15.064;2024-02-21T03:42:21;3.20;1.00
4795;DHT22;2411;47.060;15.064;2024-02-21T03:44:48;3.10;1.00
4795;DHT22;2411;47.060;15.064;2024-02-21T03:47:15;3.00;1.00
4795;DHT22;2411;47.060;15.064;2024-02-21T03:49:42;3.10;1.00
4795;DHT22;2411;47.060;15.064;2024-02-21T03:52:09;3.10;1.00
4795;DHT22;2411;47.060;15.064;2024-02-21T03:54:37;3.00;1.00
4795;DHT22;2411;47.060;15.064;2024-02-21T03:57:05;3.10;1.00
4795;DHT22;2411;47.060;15.064;2024-02-21T03:59:32;3.10;1.00
4795;DHT22;2411;47.060;15.064;2024-02-21T04:02:00;3.10;1.00
4795;DHT22;2411;47.060;15.064;2024-02-21T04:04:27;3.20;1.00
4795;DHT22;2411;47.060;15.064;2024-02-21T04:06:54;3.30;1.00
4795;DHT22;2411;47.060;15.064;2024-02-21T04:09:22;3.30;1.00
4795;DHT22;2411;47.060;15.064;2024-02-21T04:11:49;3.40;1.00
4795;DHT22;2411;47.060;15.064;2024-02-21T04:14:16;3.40;1.00
4795;DHT22;2411;47.060;15.064;2024-02-21T04:16:43;3.30;1.00
4795;DHT22;2411;47.060;15.064;2024-02-21T04:19:10;3.40;1.00
4795;DHT22;2411;47.060;15.064;2024-02-21T04:21:37;3.40;1.00
4795;DHT22;2411;47.060;15.064;2024-02-21T04:24:04;3.40;1.00
4795;DHT22;2411;47.060;15.064;2024-02-21T04:26:33;3.40;1.00
4795;DHT22;2411;47.060;15.064;2024-02-21T04:29:01;3.30;1.00
4795;DHT22;2411;47.060;15.064;2024-02-21T04:31:29;3.40;1.00
4795;DHT22;2411;47.060;15.064;2024-02-21T04:33:56;3.50;1.00
4795;DHT22;2411;47.060;15.064;2024-02-21T04:36:24;3.40;1.00
4795;DHT22;2411;47.060;15.064;2024-02-21T04:38:51;3.10;1.00
4795;DHT22;2411;47.060;15.064;2024-02-21T04:41:18;3.00;1.00
4795;DHT22;2411;47.060;15.064;2024-02-21T04:43:46;2.90;1.00
4795;DHT22;2411;47.060;15.064;2024-02-21T04:46:16;2.80;1.00
4795;DHT22;2411;47.060;15.064;2024-02-21T04:48:44;2.70;1.00
4795;DHT22;2411;47.060;15.064;2024-02-21T04:51:11;2.70;1.00
4795;DHT22;2411;47.060;15.064;2024-02-21T04:53:39;2.60;1.00
4795;DHT22;2411;47.060;15.064;2024-02-21T04:56:06;2.50;1.00
4795;DHT22;2411;47.060;15.064;2024-02-21T04:58:38;2.50;1.00
4795;DHT22;2411;47.060;15.064;2024-02-21T05:01:05;2.50;1.00
4795;DHT22;2411;47.060;15.064;2024-02-21T05:03:33;2.50;1.00
4795;DHT22;2411;47.060;15.064;2024-02-21T05:06:00;2.50;1.00
4795;DHT22;2411;47.060;15.064;2024-02-21T05:08:27;2.50;1.00
4795;DHT22;2411;47.060;15.064;2024-02-21T05:10:54;2.60;1.00
4795;DHT22;2411;47.060;15.064;2024-02-21T05:13:22;2.60;1.00
4795;DHT22;2411;47.060;15.064;2024-02-21T05:15:49;2.60;1.00
4795;DHT22;2411;47.060;15.064;2024-02-21T05:18:16;2.70;1.00
4795;DHT22;2411;47.060;15.064;2024-02-21T05:20:43;2.80;1.00
4795;DHT22;2411;47.060;15.064;2024-02-21T05:23:10;2.70;1.00
4795;DHT22;2411;47.060;15.064;2024-02-21T05:25:38;2.70;1.00
4795;DHT22;2411;47.060;15.064;2024-02-21T05:28:05;2.80;1.00
4795;DHT22;2411;47.060;15.064;2024-02-21T05:30:33;2.60;1.00
4795;DHT22;2411;47.060;15.064;2024-02-21T05:33:06;2.50;1.00
4795;DHT22;2411;47.060;15.064;2024-02-21T05:35:35;2.40;1.00
4795;DHT22;2411;47.060;15.064;2024-02-21T05:38:03;2.40;1.00
4795;DHT22;2411;47.060;15.064;2024-02-21T05:40:38;2.60;1.00
4795;DHT22;2411;47.060;15.064;2024-02-21T05:43:07;2.60;1.00
4795;DHT22;2411;47.060;15.064;2024-02-21T05:45:35;2.40;1.00
4795;DHT22;2411;47.060;15.064;2024-02-21T05:48:03;2.30;1.00
4795;DHT22;2411;47.060;15.064;2024-02-21T05:50:30;2.40;1.00
4795;DHT22;2411;47.060;15.064;2024-02-21T05:52:59;2.20;1.00
4795;DHT22;2411;47.060;15.064;2024-02-21T05:55:26;2.10;1.00
4795;DHT22;2411;47.060;15.064;2024-02-21T05:57:54;2.00;1.00
4795;DHT22;2411;47.060;15.064;2024-02-21T06:00:22;1.80;1.00
4795;DHT22;2411;47.060;15.064;2024-02-21T06:02:49;1.60;1.00
4795;DHT22;2411;47.060;15.064;2024-02-21T06:05:16;1.70;1.00
4795;DHT22;2411;47.060;15.064;2024-02-21T06:07:44;1.80;1.00
4795;DHT22;2411;47.060;15.064;2024-02-21T06:10:11;1.80;1.00
4795;DHT22;2411;47.060;15.064;2024-02-21T06:12:38;1.90;1.00
4795;DHT22;2411;47.060;15.064;2024-02-21T06:15:05;2.00;1.00
4795;DHT22;2411;47.060;15.064;2024-02-21T06:17:33;2.10;1.00
4795;DHT22;2411;47.060;15.064;2024-02-21T06:20:00;2.00;1.00
4795;DHT22;2411;47.060;15.064;2024-02-21T06:22:27;2.10;1.00
4795;DHT22;2411;47.060;15.064;2024-02-21T06:24:54;2.20;1.00
4795;DHT22;2411;47.060;15.064;2024-02-21T06:27:21;2.20;1.00
4795;DHT22;2411;47.060;15.064;2024-02-21T06:29:48;2.10;1.00
4795;DHT22;2411;47.060;15.064;2024-02-21T06:32:15;2.20;1.00
4795;DHT22;2411;47.060;15.064;2024-02-21T06:34:42;2.30;1.00
4795;DHT22;2411;47.060;15.064;2024-02-21T06:37:10;2.40;1.00
4795;DHT22;2411;47.060;15.064;2024-02-21T06:39:37;2.40;1.00
4795;DHT22;2411;47.060;15.064;2024-02-21T06:42:04;2.60;1.00
4795;DHT22;2411;47.060;15.064;2024-02-21T06:44:31;2.70;1.00
4795;DHT22;2411;47.060;15.064;2024-02-21T06:47:03;2.70;1.00
4795;DHT22;2411;47.060;15.064;2024-02-21T06:49:30;2.80;1.00
4795;DHT22;2411;47.060;15.064;2024-02-21T06:51:58;2.90;1.00
4795;DHT22;2411;47.060;15.064;2024-02-21T06:54:25;2.90;1.00
4795;DHT22;2411;47.060;15.064;2024-02-21T06:56:52;3.00;1.00
4795;DHT22;2411;47.060;15.064;2024-02-21T06:59:19;3.10;1.00
4795;DHT22;2411;47.060;15.064;2024-02-21T07:01:47;3.20;1.00
4795;DHT22;2411;47.060;15.064;2024-02-21T07:04:15;3.30;1.00
4795;DHT22;2411;47.060;15.064;2024-02-21T07:06:42;3.20;1.00
4795;DHT22;2411;47.060;15.064;2024-02-21T07:09:10;3.20;1.00
4795;DHT22;2411;47.060;15.064;2024-02-21T07:11:37;3.00;1.00
4795;DHT22;2411;47.060;15.064;2024-02-21T07:14:04;2.80;1.00
4795;DHT22;2411;47.060;15.064;2024-02-21T07:16:31;2.80;1.00
4795;DHT22;2411;47.060;15.064;2024-02-21T07:19:00;3.00;1.00
4795;DHT22;2411;47.060;15.064;2024-02-21T07:21:27;3.00;1.00
4795;DHT22;2411;47.060;15.064;2024-02-21T07:23:54;3.10;1.00
4795;DHT22;2411;47.060;15.064;2024-02-21T07:26:22;3.10;1.00
4795;DHT22;2411;47.060;15.064;2024-02-21T07:28:49;3.30;1.00
4795;DHT22;2411;47.060;15.064;2024-02-21T07:31:16;3.50;1.00
4795;DHT22;2411;47.060;15.064;2024-02-21T07:33:44;3.70;1.00
4795;DHT22;2411;47.060;15.064;2024-02-21T07:36:11;3.90;1.00
4795;DHT22;2411;47.060;15.064;2024-02-21T07:38:39;4.00;1.00
4795;DHT22;2411;47.060;15.064;2024-02-21T07:41:06;4.10;1.00
4795;DHT22;2411;47.060;15.064;2024-02-21T07:43:33;4.20;1.00
4795;DHT22;2411;47.060;15.064;2024-02-21T07:46:00;4.40;1.00
4795;DHT22;2411;47.060;15.064;2024-02-21T07:48:28;4.40;1.00
4795;DHT22;2411;47.060;15.064;2024-02-21T07:50:58;4.50;1.00
4795;DHT22;2411;47.060;15.064;2024-02-21T07:53:25;4.70;1.00
4795;DHT22;2411;47.060;15.064;2024-02-21T07:55:52;4.80;1.00
4795;DHT22;2411;47.060;15.064;2024-02-21T07:58:19;4.80;1.00
4795;DHT22;2411;47.060;15.064;2024-02-21T08:00:46;4.90;1.00
4795;DHT22;2411;47.060;15.064;2024-02-21T08:03:14;5.00;1.00
4795;DHT22;2411;47.060;15.064;2024-02-21T08:05:42;5.00;1.00
4795;DHT22;2411;47.060;15.064;2024-02-21T08:08:09;5.10;1.00
4795;DHT22;2411;47.060;15.064;2024-02-21T08:10:36;5.10;1.00
4795;DHT22;2411;47.060;15.064;2024-02-21T08:13:04;5.10;1.00
4795;DHT22;2411;47.060;15.064;2024-02-21T08:15:31;5.10;1.00
4795;DHT22;2411;47.060;15.064;2024-02-21T08:17:58;5.10;1.00
4795;DHT22;2411;47.060;15.064;2024-02-21T08:20:28;5.10;1.00
4795;DHT22;2411;47.060;15.064;2024-02-21T08:22:55;5.20;1.00
4795;DHT22;2411;47.060;15.064;2024-02-21T08:25:22;5.20;1.00
4795;DHT22;2411;47.060;15.064;2024-02-21T08:27:49;5.30;1.00
4795;DHT22;2411;47.060;15.064;2024-02-21T08:30:18;5.30;1.00
4795;DHT22;2411;47.060;15.064;2024-02-21T08:32:45;5.30;1.00
4795;DHT22;2411;47.060;15.064;2024-02-21T08:35:12;5.40;1.00
4795;DHT22;2411;47.060;15.064;2024-02-21T08:37:39;5.50;1.00
4795;DHT22;2411;47.060;15.064;2024-02-21T08:40:07;5.50;1.00
4795;DHT22;2411;47.060;15.064;2024-02-21T08:42:38;5.50;1.00
4795;DHT22;2411;47.060;15.064;2024-02-21T08:45:06;5.50;1.00
4795;DHT22;2411;47.060;15.064;2024-02-21T08:47:33;5.50;1.00
4795;DHT22;2411;47.060;15.064;2024-02-21T08:50:01;5.60;1.00
4795;DHT22;2411;47.060;15.064;2024-02-21T08:52:40;5.70;1.00
4795;DHT22;2411;47.060;15.064;2024-02-21T08:55:08;6.00;1.00
4795;DHT22;2411;47.060;15.064;2024-02-21T08:57:35;6.10;1.00
4795;DHT22;2411;47.060;15.064;2024-02-21T09:00:05;6.30;1.00
4795;DHT22;2411;47.060;15.064;2024-02-21T09:02:41;6.50;1.00
4795;DHT22;2411;47.060;15.064;2024-02-21T09:05:11;6.60;1.00
4795;DHT22;2411;47.060;15.064;2024-02-21T09:07:39;6.60;1.00
4795;DHT22;2411;47.060;15.064;2024-02-21T09:10:06;6.80;1.00
4795;DHT22;2411;47.060;15.064;2024-02-21T09:12:34;6.90;1.00
4795;DHT22;2411;47.060;15.064;2024-02-21T09:15:01;7.00;1.00
4795;DHT22;2411;47.060;15.064;2024-02-21T09:17:28;7.00;1.00
4795;DHT22;2411;47.060;15.064;2024-02-21T09:19:56;7.00;1.00
4795;DHT22;2411;47.060;15.064;2024-02-21T09:22:29;7.00;1.00
4795;DHT22;2411;47.060;15.064;2024-02-21T09:24:58;7.10;1.00
4795;DHT22;2411;47.060;15.064;2024-02-21T09:27:25;7.10;1.00
4795;DHT22;2411;47.060;15.064;2024-02-21T09:29:52;7.10;1.00
4795;DHT22;2411;47.060;15.064;2024-02-21T09:32:20;7.20;1.00
4795;DHT22;2411;47.060;15.064;2024-02-21T09:34:47;7.30;1.00
4795;DHT22;2411;47.060;15.064;2024-02-21T09:37:14;7.40;1.00
4795;DHT22;2411;47.060;15.064;2024-02-21T09:39:41;7.70;1.00
4795;DHT22;2411;47.060;15.064;2024-02-21T09:42:11;7.80;1.00
4795;DHT22;2411;47.060;15.064;2024-02-21T09:44:38;8.10;1.00
4795;DHT22;2411;47.060;15.064;2024-02-21T09:47:40;8.40;1.00
4795;DHT22;2411;47.060;15.064;2024-02-21T09:50:10;8.60;1.00
4795;DHT22;2411;47.060;15.064;2024-02-21T09:52:37;8.80;1.00
4795;DHT22;2411;47.060;15.064;2024-02-21T09:55:07;8.90;1.00
4795;DHT22;2411;47.060;15.064;2024-02-21T09:57:38;8.80;1.00
4795;DHT22;2411;47.060;15.064;2024-02-21T10:00:06;8.80;1.00
4795;DHT22;2411;47.060;15.064;2024-02-21T10:02:36;8.70;1.00
4795;DHT22;2411;47.060;15.064;2024-02-21T10:05:04;8.70;1.00
4795;DHT22;2411;47.060;15.064;2024-02-21T10:07:32;8.70;1.00
4795;DHT22;2411;47.060;15.064;2024-02-21T10:10:03;8.60;1.00
4795;DHT22;2411;47.060;15.064;2024-02-21T10:12:30;8.50;1.00
4795;DHT22;2411;47.060;15.064;2024-02-21T10:15:05;8.50;1.00
4795;DHT22;2411;47.060;15.064;2024-02-21T10:17:32;8.40;1.00
4795;DHT22;2411;47.060;15.064;2024-02-21T10:20:09;8.40;1.00
4795;DHT22;2411;47.060;15.064;2024-02-21T10:22:38;8.50;1.00
4795;DHT22;2411;47.060;15.064;2024-02-21T10:25:10;8.50;1.00
4795;DHT22;2411;47.060;15.064;2024-02-21T10:27:40;8.40;1.00
4795;DHT22;2411;47.060;15.064;2024-02-21T10:30:13;8.60;1.00
4795;DHT22;2411;47.060;15.064;2024-02-21T10:32:54;9.00;1.00
4795;DHT22;2411;47.060;15.064;2024-02-21T10:35:28;9.20;1.00
4795;DHT22;2411;47.060;15.064;2024-02-21T10:37:57;9.40;1.00
4795;DHT22;2411;47.060;15.064;2024-02-21T10:40:28;9.50;1.00
4795;DHT22;2411;47.060;15.064;2024-02-21T10:43:00;9.70;1.00
4795;DHT22;2411;47.060;15.064;2024-02-21T10:45:30;9.80;1.00
4795;DHT22;2411;47.060;15.064;2024-02-21T10:48:11;10.00;1.00
4795;DHT22;2411;47.060;15.064;2024-02-21T10:50:58;10.20;1.00
4795;DHT22;2411;47.060;15.064;2024-02-21T10:56:29;10.70;1.00
4795;DHT22;2411;47.060;15.064;2024-02-21T10:58:58;11.10;1.00
4795;DHT22;2411;47.060;15.064;2024-02-21T11:01:28;11.40;1.00
4795;DHT22;2411;47.060;15.064;2024-02-21T11:04:02;11.70;1.00
4795;DHT22;2411;47.060;15.064;2024-02-21T11:06:30;12.00;1.00
4795;DHT22;2411;47.060;15.064;2024-02-21T11:09:01;12.00;1.00
4795;DHT22;2411;47.060;15.064;2024-02-21T11:11:39;12.00;1.00
4795;DHT22;2411;47.060;15.064;2024-02-21T11:16:40;12.10;1.00
4795;DHT22;2411;47.060;15.064;2024-02-21T11:19:28;12.20;1.00
4795;DHT22;2411;47.060;15.064;2024-02-21T11:21:57;12.10;1.00
4795;DHT22;2411;47.060;15.064;2024-02-21T11:24:31;12.00;1.00
4795;DHT22;2411;47.060;15.064;2024-02-21T11:27:14;12.10;1.00
4795;DHT22;2411;47.060;15.064;2024-02-21T11:29:45;12.10;1.00
4795;DHT22;2411;47.060;15.064;2024-02-21T11:32:16;12.10;1.00
4795;DHT22;2411;47.060;15.064;2024-02-21T11:35:02;12.00;1.00
4795;DHT22;2411;47.060;15.064;2024-02-21T11:37:35;11.80;1.00
4795;DHT22;2411;47.060;15.064;2024-02-21T11:40:06;12.00;1.00
4795;DHT22;2411;47.060;15.064;2024-02-21T11:42:38;12.00;1.00
4795;DHT22;2411;47.060;15.064;2024-02-21T11:45:06;11.80;1.00
4795;DHT22;2411;47.060;15.064;2024-02-21T11:47:34;11.80;1.00
4795;DHT22;2411;47.060;15.064;2024-02-21T11:50:01;11.80;1.00
4795;DHT22;2411;47.060;15.064;2024-02-21T11:52:28;11.90;1.00
4795;DHT22;2411;47.060;15.064;2024-02-21T11:54:56;12.00;1.00
4795;DHT22;2411;47.060;15.064;2024-02-21T11:57:32;11.90;1.00
4795;DHT22;2411;47.060;15.064;2024-02-21T11:59:59;11.90;1.00
4795;DHT22;2411;47.060;15.064;2024-02-21T12:02:36;12.00;1.00
4795;DHT22;2411;47.060;15.064;2024-02-21T12:05:04;12.10;1.00
4795;DHT22;2411;47.060;15.064;2024-02-21T12:07:32;12.10;1.00
4795;DHT22;2411;47.060;15.064;2024-02-21T12:10:00;12.20;1.00
4795;DHT22;2411;47.060;15.064;2024-02-21T12:12:27;12.00;1.00
4795;DHT22;2411;47.060;15.064;2024-02-21T12:14:56;11.80;1.00
4795;DHT22;2411;47.060;15.064;2024-02-21T12:17:25;11.90;1.00
4795;DHT22;2411;47.060;15.064;2024-02-21T12:19:52;11.90;1.00
4795;DHT22;2411;47.060;15.064;2024-02-21T12:22:19;11.90;1.00
4795;DHT22;2411;47.060;15.064;2024-02-21T12:24:46;11.90;1.00
4795;DHT22;2411;47.060;15.064;2024-02-21T12:27:15;11.90;1.00
4795;DHT22;2411;47.060;15.064;2024-02-21T12:29:42;11.80;1.00
4795;DHT22;2411;47.060;15.064;2024-02-21T12:32:10;11.90;1.00
4795;DHT22;2411;47.060;15.064;2024-02-21T12:34:37;11.90;1.00
4795;DHT22;2411;47.060;15.064;2024-02-21T12:37:19;12.00;1.00
4795;DHT22;2411;47.060;15.064;2024-02-21T12:39:47;12.10;1.00
4795;DHT22;2411;47.060;15.064;2024-02-21T12:42:15;12.10;1.00
4795;DHT22;2411;47.060;15.064;2024-02-21T12:44:42;12.20;1.00
4795;DHT22;2411;47.060;15.064;2024-02-21T12:47:10;12.20;1.00
4795;DHT22;2411;47.060;15.064;2024-02-21T12:49:37;12.20;1.00
4795;DHT22;2411;47.060;15.064;2024-02-21T12:52:10;12.40;1.00
4795;DHT22;2411;47.060;15.064;2024-02-21T12:54:38;12.50;1.00
4795;DHT22;2411;47.060;15.064;2024-02-21T12:57:05;12.60;1.00
4795;DHT22;2411;47.060;15.064;2024-02-21T12:59:32;12.40;1.00
4795;DHT22;2411;47.060;15.064;2024-02-21T13:01:59;12.40;1.00
4795;DHT22;2411;47.060;15.064;2024-02-21T13:04:27;12.30;1.00
4795;DHT22;2411;47.060;15.064;2024-02-21T13:06:55;12.20;1.00
4795;DHT22;2411;47.060;15.064;2024-02-21T13:09:24;12.10;1.00
4795;DHT22;2411;47.060;15.064;2024-02-21T13:11:52;12.20;1.00
4795;DHT22;2411;47.060;15.064;2024-02-21T13:14:19;12.40;1.00
4795;DHT22;2411;47.060;15.064;2024-02-21T13:16:47;12.60;1.00
4795;DHT22;2411;47.060;15.064;2024-02-21T13:19:15;12.80;1.00
4795;DHT22;2411;47.060;15.064;2024-02-21T13:21:45;12.80;1.00
4795;DHT22;2411;47.060;15.064;2024-02-21T13:24:12;12.70;1.00
4795;DHT22;2411;47.060;15.064;2024-02-21T13:26:39;12.60;1.00
4795;DHT22;2411;47.060;15.064;2024-02-21T13:29:06;12.40;1.00
4795;DHT22;2411;47.060;15.064;2024-02-21T13:31:33;12.40;1.00
4795;DHT22;2411;47.060;15.064;2024-02-21T13:34:01;12.40;1.00
4795;DHT22;2411;47.060;15.064;2024-02-21T13:36:28;12.40;1.00
4795;DHT22;2411;47.060;15.064;2024-02-21T13:38:55;12.40;1.00
4795;DHT22;2411;47.060;15.064;2024-02-21T13:41:22;12.30;1.00
4795;DHT22;2411;47.060;15.064;2024-02-21T13:43:50;12.20;1.00
4795;DHT22;2411;47.060;15.064;2024-02-21T13:46:17;12.20;1.00
4795;DHT22;2411;47.060;15.064;2024-02-21T13:48:45;12.20;1.00
4795;DHT22;2411;47.060;15.064;2024-02-21T13:51:12;12.10;1.00
4795;DHT22;2411;47.060;15.064;2024-02-21T13:53:39;12.30;1.00
4795;DHT22;2411;47.060;15.064;2024-02-21T13:56:06;12.50;1.00
4795;DHT22;2411;47.060;15.064;2024-02-21T13:58:36;12.70;1.00
4795;DHT22;2411;47.060;15.064;2024-02-21T14:01:04;12.70;1.00
4795;DHT22;2411;47.060;15.064;2024-02-21T14:03:31;12.70;1.00
4795;DHT22;2411;47.060;15.064;2024-02-21T14:05:59;12.80;1.00
4795;DHT22;2411;47.060;15.064;2024-02-21T14:08:27;12.80;1.00
4795;DHT22;2411;47.060;15.064;2024-02-21T14:10:54;12.80;1.00
4795;DHT22;2411;47.060;15.064;2024-02-21T14:13:22;12.90;1.00
4795;DHT22;2411;47.060;15.064;2024-02-21T14:15:50;12.90;1.00
4795;DHT22;2411;47.060;15.064;2024-02-21T14:18:17;13.00;1.00
4795;DHT22;2411;47.060;15.064;2024-02-21T14:20:44;12.90;1.00
4795;DHT22;2411;47.060;15.064;2024-02-21T14:23:13;13.00;1.00
4795;DHT22;2411;47.060;15.064;2024-02-21T14:25:41;12.90;1.00
4795;DHT22;2411;47.060;15.064;2024-02-21T14:28:09;12.70;1.00
4795;DHT22;2411;47.060;15.064;2024-02-21T14:30:36;12.50;1.00
4795;DHT22;2411;47.060;15.064;2024-02-21T14:33:03;12.30;1.00
4795;DHT22;2411;47.060;15.064;2024-02-21T14:35:31;12.30;1.00
4795;DHT22;2411;47.060;15.064;2024-02-21T14:37:58;12.30;1.00
4795;DHT22;2411;47.060;15.064;2024-02-21T14:40:28;12.40;1.00
4795;DHT22;2411;47.060;15.064;2024-02-21T14:42:57;12.30;1.00
4795;DHT22;2411;47.060;15.064;2024-02-21T14:45:24;12.30;1.00
4795;DHT22;2411;47.060;15.064;2024-02-21T14:47:51;12.20;1.00
4795;DHT22;2411;47.060;15.064;2024-02-21T14:50:18;12.20;1.00
4795;DHT22;2411;47.060;15.064;2024-02-21T14:52:45;12.20;1.00
4795;DHT22;2411;47.060;15.064;2024-02-21T14:55:13;12.10;1.00
4795;DHT22;2411;47.060;15.064;2024-02-21T14:57:41;12.10;1.00
4795;DHT22;2411;47.060;15.064;2024-02-21T15:00:10;11.90;1.00
4795;DHT22;2411;47.060;15.064;2024-02-21T15:02:38;11.60;1.00
4795;DHT22;2411;47.060;15.064;2024-02-21T15:05:06;11.50;1.00
4795;DHT22;2411;47.060;15.064;2024-02-21T15:07:33;11.40;1.00
4795;DHT22;2411;47.060;15.064;2024-02-21T15:10:01;11.30;1.00
4795;DHT22;2411;47.060;15.064;2024-02-21T15:12:29;11.30;1.00
4795;DHT22;2411;47.060;15.064;2024-02-21T15:14:58;11.30;1.00
4795;DHT22;2411;47.060;15.064;2024-02-21T15:17:26;11.20;1.00
4795;DHT22;2411;47.060;15.064;2024-02-21T15:19:53;11.30;1.00
4795;DHT22;2411;47.060;15.064;2024-02-21T15:22:22;11.20;1.00
4795;DHT22;2411;47.060;15.064;2024-02-21T15:24:50;11.20;1.00
4795;DHT22;2411;47.060;15.064;2024-02-21T15:27:18;11.20;1.00
4795;DHT22;2411;47.060;15.064;2024-02-21T15:29:45;11.20;1.00
4795;DHT22;2411;47.060;15.064;2024-02-21T15:32:12;11.20;1.00
4795;DHT22;2411;47.060;15.064;2024-02-21T15:34:39;11.20;1.00
4795;DHT22;2411;47.060;15.064;2024-02-21T15:37:06;11.20;1.00
4795;DHT22;2411;47.060;15.064;2024-02-21T15:39:33;11.20;1.00
4795;DHT22;2411;47.060;15.064;2024-02-21T15:42:01;11.10;1.00
4795;DHT22;2411;47.060;15.064;2024-02-21T15:44:28;11.10;1.00
4795;DHT22;2411;47.060;15.064;2024-02-21T15:46:55;11.10;1.00
4795;DHT22;2411;47.060;15.064;2024-02-21T15:49:22;11.10;1.00
4795;DHT22;2411;47.060;15.064;2024-02-21T15:51:49;11.10;1.00
4795;DHT22;2411;47.060;15.064;2024-02-21T15:54:16;11.10;1.00
4795;DHT22;2411;47.060;15.064;2024-02-21T15:56:50;11.00;1.00
4795;DHT22;2411;47.060;15.064;2024-02-21T15:59:17;10.90;1.00
4795;DHT22;2411;47.060;15.064;2024-02-21T16:01:45;10.80;1.00
4795;DHT22;2411;47.060;15.064;2024-02-21T16:04:12;10.60;1.00
4795;DHT22;2411;47.060;15.064;2024-02-21T16:06:42;10.50;1.00
4795;DHT22;2411;47.060;15.064;2024-02-21T16:09:11;10.30;1.00
4795;DHT22;2411;47.060;15.064;2024-02-21T16:11:38;10.20;1.00
4795;DHT22;2411;47.060;15.064;2024-02-21T16:14:05;10.00;1.00
4795;DHT22;2411;47.060;15.064;2024-02-21T16:16:32;9.90;1.00
4795;DHT22;2411;47.060;15.064;2024-02-21T16:19:00;9.70;1.00
4795;DHT22;2411;47.060;15.064;2024-02-21T16:21:27;9.60;1.00
4795;DHT22;2411;47.060;15.064;2024-02-21T16:23:54;9.40;1.00